Time;durP1;ratioP1;P1;durP2;ratioP2;P2;SDS_P1;SDS_P2;PMS_P1;PMS_P2;Temp;Humidity;BMP_temperature;BMP_pressure;BME280_temperature;BME280_humidity;BME280_pressure;Samples;Min_cycle;Max_cycle;Signal;HPM_P1;HPM_P2
2021/07/03 00:00:30;;;;;;;8.40;5.78;;;16.50;86.90;;;;;;2067076;28;20038;-84
2021/07/03 00:01:31;;;;;;;8.85;6.00;;;16.50;86.90;;;;;;2074397;28;20061;-84
2021/07/03 00:02:31;;;;;;;10.40;6.28;;;16.50;86.90;;;;;;2066114;28;20026;-84
2021/07/03 00:03:32;;;;;;;9.07;6.00;;;16.50;86.80;;;;;;2057195;28;20097;-84
2021/07/03 00:04:33;;;;;;;10.40;6.20;;;16.50;87.40;;;;;;2049556;28;20111;-86
2021/07/03 00:05:33;;;;;;;9.35;6.35;;;16.50;86.80;;;;;;2057885;28;20042;-83
2021/07/03 00:06:34;;;;;;;9.65;6.28;;;16.50;86.80;;;;;;2062505;28;20529;-84
2021/07/03 00:07:34;;;;;;;8.85;5.88;;;16.50;86.80;;;;;;2074520;28;20476;-84
2021/07/03 00:08:35;;;;;;;8.85;5.95;;;16.50;86.90;;;;;;2066033;28;20532;-84
2021/07/03 00:09:37;;;;;;;10.00;5.90;;;16.50;86.90;;;;;;2070521;28;20073;-82
2021/07/03 00:10:38;;;;;;;9.77;6.10;;;16.50;86.90;;;;;;2063759;28;20027;-84
2021/07/03 00:11:39;;;;;;;8.95;6.30;;;16.50;86.90;;;;;;2074007;28;20033;-83
2021/07/03 00:12:40;;;;;;;8.13;5.70;;;16.40;87.00;;;;;;2073856;28;20029;-83
2021/07/03 00:13:41;;;;;;;8.88;6.35;;;16.40;87.00;;;;;;2074205;28;20065;-83
2021/07/03 00:14:42;;;;;;;8.90;6.30;;;16.40;87.00;;;;;;2074010;28;20104;-84
2021/07/03 00:15:42;;;;;;;8.95;6.43;;;16.40;87.10;;;;;;2073306;28;20034;-83
2021/07/03 00:16:44;;;;;;;9.25;6.40;;;16.40;87.10;;;;;;2072356;28;20029;-85
2021/07/03 00:17:44;;;;;;;9.07;6.20;;;16.40;87.10;;;;;;2073839;28;20045;-84
2021/07/03 00:18:45;;;;;;;9.95;6.75;;;16.40;87.10;;;;;;2074067;28;20061;-84
2021/07/03 00:19:46;;;;;;;8.75;6.15;;;16.30;87.70;;;;;;2073900;28;20034;-84
2021/07/03 00:20:47;;;;;;;9.98;6.75;;;16.40;87.30;;;;;;2074126;28;20143;-83
2021/07/03 00:21:47;;;;;;;10.90;7.35;;;16.30;87.20;;;;;;2065712;28;20567;-84
2021/07/03 00:22:48;;;;;;;10.95;6.97;;;16.30;87.30;;;;;;2066012;28;20511;-84
2021/07/03 00:23:49;;;;;;;10.13;6.80;;;16.30;87.40;;;;;;2066039;28;20027;-85
2021/07/03 00:24:50;;;;;;;10.00;6.65;;;16.30;87.40;;;;;;2074203;28;20022;-84
2021/07/03 00:25:52;;;;;;;9.95;6.60;;;16.30;87.40;;;;;;2073956;28;20124;-84
2021/07/03 00:26:52;;;;;;;10.40;6.63;;;16.30;87.50;;;;;;2065856;28;20022;-83
2021/07/03 00:27:53;;;;;;;10.73;7.43;;;16.30;87.50;;;;;;2074140;28;20068;-84
2021/07/03 00:28:53;;;;;;;11.35;7.15;;;16.30;87.60;;;;;;2065385;28;20428;-85
2021/07/03 00:29:55;;;;;;;9.57;6.63;;;16.30;87.60;;;;;;2066325;28;20667;-84
2021/07/03 00:30:56;;;;;;;11.00;7.28;;;16.20;87.60;;;;;;2064524;28;20038;-83
2021/07/03 00:31:56;;;;;;;12.00;7.63;;;16.20;87.50;;;;;;2065884;28;20432;-84
2021/07/03 00:32:57;;;;;;;10.13;6.93;;;16.20;87.60;;;;;;2057550;28;20034;-84
2021/07/03 00:33:58;;;;;;;10.48;7.50;;;16.20;87.60;;;;;;2065218;28;20452;-84
2021/07/03 00:34:58;;;;;;;10.25;7.32;;;16.20;87.50;;;;;;2065947;28;20033;-84
2021/07/03 00:35:59;;;;;;;10.65;7.68;;;16.30;87.60;;;;;;2062447;28;20561;-84
2021/07/03 00:37:00;;;;;;;10.75;7.53;;;16.20;87.50;;;;;;2068838;28;20504;-84
2021/07/03 00:38:01;;;;;;;11.65;7.30;;;16.20;87.50;;;;;;2078576;28;20038;-84
2021/07/03 00:39:03;;;;;;;11.00;7.28;;;16.20;87.50;;;;;;2069303;28;20109;-84
2021/07/03 00:40:05;;;;;;;10.90;7.47;;;16.20;87.60;;;;;;2067420;28;20112;-84
2021/07/03 00:41:05;;;;;;;11.23;7.40;;;16.20;87.60;;;;;;2078394;28;20506;-84
2021/07/03 00:42:06;;;;;;;10.57;7.35;;;16.20;87.60;;;;;;2077386;28;20030;-83
2021/07/03 00:43:07;;;;;;;10.70;6.78;;;16.10;87.60;;;;;;2065405;28;20547;-84
2021/07/03 00:44:07;;;;;;;10.15;7.53;;;16.20;87.70;;;;;;2067333;28;20506;-85
2021/07/03 00:45:10;;;;;;;10.80;7.60;;;16.20;87.80;;;;;;2064322;28;20432;-85
2021/07/03 00:46:10;;;;;;;10.95;7.60;;;16.10;87.70;;;;;;2065452;28;20076;-84
2021/07/03 00:47:11;;;;;;;11.23;7.22;;;16.10;87.80;;;;;;2073806;28;20565;-86
2021/07/03 00:48:12;;;;;;;12.10;7.65;;;16.10;87.80;;;;;;2069221;28;20118;-84
2021/07/03 00:49:13;;;;;;;11.18;8.15;;;16.10;87.80;;;;;;2065961;28;20030;-84
2021/07/03 00:50:14;;;;;;;10.05;7.25;;;16.10;87.90;;;;;;2073084;28;20026;-84
2021/07/03 00:51:14;;;;;;;11.50;7.72;;;16.10;87.90;;;;;;2071902;28;20495;-84
2021/07/03 00:52:15;;;;;;;11.75;8.07;;;16.10;87.90;;;;;;2065010;28;20033;-84
2021/07/03 00:53:16;;;;;;;12.18;7.72;;;16.10;88.00;;;;;;2064918;28;20023;-84
2021/07/03 00:54:20;;;;;;;12.57;8.15;;;16.10;88.00;;;;;;2073582;28;20072;-84
2021/07/03 00:55:21;;;;;;;11.52;8.15;;;16.10;88.00;;;;;;2070309;28;20030;-85
2021/07/03 00:56:26;;;;;;;11.02;7.68;;;16.00;88.00;;;;;;2059202;28;20119;-82
2021/07/03 00:57:27;;;;;;;10.68;7.15;;;16.00;88.00;;;;;;2072213;28;20026;-87
2021/07/03 00:58:27;;;;;;;11.27;7.40;;;16.00;88.00;;;;;;2082537;28;20087;-85
2021/07/03 00:59:39;;;;;;;11.88;7.88;;;16.00;88.00;;;;;;2074047;28;20037;-83
2021/07/03 01:00:40;;;;;;;11.40;8.10;;;16.00;88.00;;;;;;2072881;28;20084;-83
2021/07/03 01:01:41;;;;;;;12.65;8.30;;;16.00;88.10;;;;;;2065301;28;20030;-84
2021/07/03 01:02:41;;;;;;;11.68;8.18;;;16.00;88.10;;;;;;2057264;28;20488;-84
2021/07/03 01:03:42;;;;;;;12.23;7.63;;;16.00;88.20;;;;;;2065041;28;20026;-84
2021/07/03 01:04:43;;;;;;;11.43;7.63;;;16.00;88.20;;;;;;2064641;28;20062;-84
2021/07/03 01:05:44;;;;;;;11.63;7.72;;;15.90;88.20;;;;;;2065321;28;20480;-84
2021/07/03 01:06:45;;;;;;;11.05;7.60;;;16.00;88.30;;;;;;2049527;28;20063;-84
2021/07/03 01:07:46;;;;;;;11.52;7.88;;;16.00;88.30;;;;;;2057435;28;20055;-84
2021/07/03 01:08:46;;;;;;;11.57;7.70;;;16.00;88.30;;;;;;2073422;28;20515;-83
2021/07/03 01:09:47;;;;;;;12.27;8.30;;;15.90;88.20;;;;;;2060615;28;20376;-84
2021/07/03 01:10:48;;;;;;;11.63;7.72;;;16.00;88.30;;;;;;2056887;28;20437;-84
2021/07/03 01:11:49;;;;;;;12.18;8.02;;;15.90;88.20;;;;;;2049483;28;20513;-84
2021/07/03 01:12:50;;;;;;;11.18;7.60;;;15.90;88.20;;;;;;2065324;28;20428;-84
2021/07/03 01:13:51;;;;;;;11.77;7.82;;;15.90;88.20;;;;;;2073568;28;20527;-83
2021/07/03 01:14:51;;;;;;;12.00;7.57;;;15.90;88.20;;;;;;2064653;28;20102;-84
2021/07/03 01:15:52;;;;;;;12.40;7.85;;;15.90;88.80;;;;;;2073001;28;20030;-83
2021/07/03 01:16:54;;;;;;;11.90;8.13;;;16.00;88.30;;;;;;2065419;28;20404;-83
2021/07/03 01:17:54;;;;;;;11.95;8.10;;;15.90;88.20;;;;;;2065384;28;20045;-84
2021/07/03 01:18:55;;;;;;;11.77;7.65;;;16.00;88.30;;;;;;2073395;28;20030;-84
2021/07/03 01:19:55;;;;;;;11.10;7.60;;;15.90;88.20;;;;;;2071223;28;20045;-84
2021/07/03 01:20:57;;;;;;;11.88;7.82;;;16.00;88.30;;;;;;2072462;28;20038;-84
2021/07/03 01:21:58;;;;;;;12.15;8.00;;;15.90;88.20;;;;;;2073207;28;20037;-84
2021/07/03 01:22:59;;;;;;;12.48;7.97;;;15.90;88.20;;;;;;2068229;28;20457;-84
2021/07/03 01:24:00;;;;;;;10.55;7.35;;;15.90;88.20;;;;;;2058859;28;20054;-83
2021/07/03 01:25:01;;;;;;;12.15;8.20;;;15.90;88.20;;;;;;2065208;28;20366;-84
2021/07/03 01:26:02;;;;;;;11.30;7.78;;;15.90;88.20;;;;;;2065538;28;20030;-84
2021/07/03 01:27:04;;;;;;;10.57;7.55;;;15.90;88.30;;;;;;2065470;28;20027;-84
2021/07/03 01:28:06;;;;;;;11.00;7.35;;;15.90;88.40;;;;;;2075827;28;20021;-84
2021/07/03 01:29:06;;;;;;;11.15;7.72;;;15.90;88.50;;;;;;2081027;28;20045;-83
2021/07/03 01:30:10;;;;;;;11.20;7.78;;;15.80;88.50;;;;;;2074951;28;20026;-83
2021/07/03 01:31:11;;;;;;;11.52;7.80;;;15.80;88.60;;;;;;2073517;28;20508;-84
2021/07/03 01:32:12;;;;;;;13.30;7.75;;;15.80;88.70;;;;;;2072512;28;20065;-84
2021/07/03 01:33:13;;;;;;;11.70;7.72;;;15.80;88.70;;;;;;2073337;28;20482;-84
2021/07/03 01:34:18;;;;;;;13.02;8.30;;;15.80;88.80;;;;;;2065348;28;20026;-84
2021/07/03 01:35:24;;;;;;;11.35;7.75;;;15.80;88.90;;;;;;2062071;28;20412;-84
2021/07/03 01:36:24;;;;;;;11.52;7.70;;;15.80;88.90;;;;;;2064371;28;20026;-83
2021/07/03 01:37:26;;;;;;;11.60;7.88;;;15.80;88.90;;;;;;2065000;28;20603;-83
2021/07/03 01:38:27;;;;;;;12.35;7.93;;;15.80;88.90;;;;;;2069297;28;20103;-83
2021/07/03 01:39:28;;;;;;;11.43;7.57;;;15.80;89.00;;;;;;2064792;28;20027;-84
2021/07/03 01:40:29;;;;;;;12.18;8.05;;;15.80;89.00;;;;;;2068569;28;20060;-82
2021/07/03 01:41:29;;;;;;;11.05;7.65;;;15.80;89.00;;;;;;2080308;28;20037;-83
2021/07/03 01:42:30;;;;;;;14.35;7.50;;;15.80;89.00;;;;;;2073310;28;20574;-83
2021/07/03 01:43:31;;;;;;;11.50;7.80;;;15.80;89.00;;;;;;2069084;28;20497;-83
2021/07/03 01:44:31;;;;;;;10.75;7.43;;;15.80;89.00;;;;;;2067808;28;20033;-83
2021/07/03 01:45:32;;;;;;;12.18;7.55;;;15.80;89.00;;;;;;2072957;28;20488;-83
2021/07/03 01:46:33;;;;;;;10.60;7.57;;;15.80;89.00;;;;;;2057013;28;20636;-83
2021/07/03 01:47:41;;;;;;;13.10;8.70;;;15.80;89.00;;;;;;2065142;28;20029;-83
2021/07/03 01:48:42;;;;;;;12.63;8.00;;;15.80;89.00;;;;;;2082404;28;20103;-83
2021/07/03 01:49:45;;;;;;;13.02;8.02;;;15.80;89.00;;;;;;2070964;28;20038;-83
2021/07/03 01:50:45;;;;;;;11.95;7.75;;;15.80;88.90;;;;;;2072595;28;20022;-83
2021/07/03 01:51:48;;;;;;;11.55;7.90;;;15.80;89.00;;;;;;2072500;28;20029;-82
2021/07/03 01:52:51;;;;;;;13.38;8.68;;;15.80;88.90;;;;;;2071037;28;20021;-83
2021/07/03 01:53:52;;;;;;;12.55;8.15;;;15.80;88.90;;;;;;2073849;28;20029;-83
2021/07/03 01:54:52;;;;;;;12.48;8.02;;;15.80;88.90;;;;;;2071883;28;20077;-84
2021/07/03 01:55:54;;;;;;;11.65;7.78;;;15.80;89.10;;;;;;2057081;28;20039;-84
2021/07/03 01:56:58;;;;;;;12.27;8.43;;;15.80;88.90;;;;;;2056968;28;20057;-83
2021/07/03 01:57:58;;;;;;;12.65;8.00;;;15.80;88.90;;;;;;2057212;28;20405;-83
2021/07/03 01:58:59;;;;;;;12.55;8.48;;;15.80;88.90;;;;;;2059893;28;20030;-83
2021/07/03 02:00:01;;;;;;;13.80;8.88;;;15.80;88.90;;;;;;2080937;28;20040;-83
2021/07/03 02:01:04;;;;;;;11.75;8.10;;;15.80;88.90;;;;;;2064768;28;20536;-83
2021/07/03 02:02:05;;;;;;;12.32;8.07;;;15.80;89.00;;;;;;2057370;28;20122;-83
2021/07/03 02:03:05;;;;;;;13.20;8.40;;;15.80;89.00;;;;;;2064937;28;20444;-83
2021/07/03 02:04:06;;;;;;;13.18;8.57;;;15.80;89.00;;;;;;2078300;28;20042;-82
2021/07/03 02:05:07;;;;;;;13.13;9.00;;;15.80;88.90;;;;;;2064868;28;20085;-83
2021/07/03 02:06:08;;;;;;;12.75;9.10;;;15.80;89.00;;;;;;2057084;28;20038;-83
2021/07/03 02:07:09;;;;;;;13.23;9.15;;;15.80;89.00;;;;;;2073397;28;20076;-83
2021/07/03 02:08:10;;;;;;;13.10;9.02;;;15.80;89.00;;;;;;2065163;28;20030;-83
2021/07/03 02:09:11;;;;;;;13.63;9.23;;;15.80;89.00;;;;;;2064937;28;20030;-83
2021/07/03 02:10:11;;;;;;;13.98;9.10;;;15.80;89.00;;;;;;2073035;28;20029;-83
2021/07/03 02:11:12;;;;;;;13.25;8.90;;;15.80;89.00;;;;;;2072366;28;20145;-83
2021/07/03 02:12:12;;;;;;;13.25;8.95;;;15.80;89.00;;;;;;2073440;28;20026;-83
2021/07/03 02:13:13;;;;;;;13.25;9.25;;;15.80;89.00;;;;;;2064529;28;20061;-83
2021/07/03 02:14:15;;;;;;;12.90;8.77;;;15.70;89.00;;;;;;2072672;28;20099;-83
2021/07/03 02:15:15;;;;;;;13.65;9.52;;;15.80;89.00;;;;;;2079361;28;20120;-82
2021/07/03 02:16:16;;;;;;;13.70;9.20;;;15.80;89.00;;;;;;2056800;28;20589;-83
2021/07/03 02:17:17;;;;;;;13.07;8.45;;;15.80;89.00;;;;;;2064945;28;20481;-84
2021/07/03 02:18:17;;;;;;;15.13;10.57;;;15.80;89.10;;;;;;2056958;28;20089;-83
2021/07/03 02:19:19;;;;;;;14.00;9.60;;;15.80;89.10;;;;;;2061756;28;20026;-83
2021/07/03 02:20:20;;;;;;;13.70;9.95;;;15.80;89.10;;;;;;2071690;28;20037;-85
2021/07/03 02:21:21;;;;;;;14.15;9.60;;;15.80;89.70;;;;;;2064868;28;20505;-85
2021/07/03 02:22:22;;;;;;;13.75;9.80;;;15.80;89.10;;;;;;2065826;28;20034;-83
2021/07/03 02:23:23;;;;;;;13.27;9.35;;;15.80;89.10;;;;;;2064654;28;20088;-83
2021/07/03 02:24:23;;;;;;;14.68;9.50;;;15.80;89.10;;;;;;2064741;28;20065;-83
2021/07/03 02:25:25;;;;;;;15.23;10.57;;;15.80;89.10;;;;;;2063893;28;20026;-84
2021/07/03 02:26:26;;;;;;;13.98;9.80;;;15.80;89.20;;;;;;2055599;28;20034;-84
2021/07/03 02:27:27;;;;;;;14.40;10.02;;;15.80;89.20;;;;;;2066130;28;20072;-83
2021/07/03 02:28:28;;;;;;;14.07;9.73;;;15.70;89.10;;;;;;2064792;28;20455;-83
2021/07/03 02:29:28;;;;;;;14.52;9.85;;;15.80;89.20;;;;;;2064563;28;20033;-84
2021/07/03 02:30:30;;;;;;;14.57;9.88;;;15.70;89.20;;;;;;2058603;28;20528;-84
2021/07/03 02:31:31;;;;;;;14.40;10.05;;;15.70;89.20;;;;;;2049265;28;20034;-84
2021/07/03 02:32:32;;;;;;;14.00;10.07;;;15.70;89.20;;;;;;2064370;28;20121;-84
2021/07/03 02:33:33;;;;;;;15.82;10.30;;;15.70;89.20;;;;;;2056710;28;20402;-84
2021/07/03 02:34:34;;;;;;;15.50;10.23;;;15.70;89.20;;;;;;2067132;28;20097;-84
2021/07/03 02:35:34;;;;;;;14.48;10.23;;;15.70;89.30;;;;;;2072832;28;20026;-83
2021/07/03 02:36:35;;;;;;;15.45;10.60;;;15.70;89.30;;;;;;2048912;28;20046;-83
2021/07/03 02:37:37;;;;;;;15.85;10.48;;;15.70;89.30;;;;;;2060642;28;20558;-83
2021/07/03 02:38:38;;;;;;;16.30;10.23;;;15.70;89.40;;;;;;2080187;28;20034;-84
2021/07/03 02:39:39;;;;;;;16.45;10.68;;;15.70;89.40;;;;;;2067736;28;20034;-84
2021/07/03 02:40:39;;;;;;;14.98;9.98;;;15.70;89.40;;;;;;2072888;28;20792;-83
2021/07/03 02:41:40;;;;;;;14.50;10.30;;;15.70;89.40;;;;;;2078178;28;20117;-84
2021/07/03 02:42:41;;;;;;;14.55;10.55;;;15.70;89.40;;;;;;2072772;28;20038;-84
2021/07/03 02:43:42;;;;;;;15.75;10.57;;;15.70;89.40;;;;;;2065068;28;20038;-84
2021/07/03 02:44:42;;;;;;;14.63;10.52;;;15.70;89.40;;;;;;2071295;28;20064;-84
2021/07/03 02:45:43;;;;;;;14.77;10.15;;;15.70;89.40;;;;;;2067941;28;20030;-83
2021/07/03 02:46:44;;;;;;;16.45;10.93;;;15.60;89.40;;;;;;2070239;28;20041;-84
2021/07/03 02:47:45;;;;;;;16.13;10.52;;;15.70;89.50;;;;;;2064102;28;20023;-83
2021/07/03 02:48:46;;;;;;;16.60;10.93;;;15.60;89.50;;;;;;2059077;28;20583;-83
2021/07/03 02:49:47;;;;;;;16.15;10.65;;;15.60;89.50;;;;;;2052763;28;20046;-84
2021/07/03 02:50:47;;;;;;;15.93;10.35;;;15.60;90.00;;;;;;2056242;28;20034;-84
2021/07/03 02:51:49;;;;;;;16.35;11.02;;;15.60;89.50;;;;;;2073072;28;20097;-83
2021/07/03 02:52:49;;;;;;;16.52;10.88;;;15.60;89.50;;;;;;2081050;28;20112;-84
2021/07/03 02:53:50;;;;;;;16.92;10.98;;;15.60;89.60;;;;;;2072891;28;20067;-83
2021/07/03 02:54:50;;;;;;;17.27;10.85;;;15.60;89.60;;;;;;2072945;28;20033;-83
2021/07/03 02:55:51;;;;;;;15.27;10.88;;;15.60;89.60;;;;;;2072628;28;20551;-84
2021/07/03 02:56:57;;;;;;;16.38;10.95;;;15.60;89.60;;;;;;2076995;28;20483;-84
2021/07/03 02:57:58;;;;;;;17.48;11.70;;;15.60;89.60;;;;;;2072532;28;20089;-83
2021/07/03 02:58:59;;;;;;;17.80;11.68;;;15.60;89.70;;;;;;2061329;28;20030;-84
2021/07/03 02:59:59;;;;;;;17.38;11.65;;;15.60;89.70;;;;;;2064985;28;20034;-84
2021/07/03 03:01:00;;;;;;;17.08;11.80;;;15.60;89.70;;;;;;2068809;28;20515;-84
2021/07/03 03:02:01;;;;;;;17.50;12.05;;;15.60;90.10;;;;;;2073218;28;20037;-84
2021/07/03 03:03:02;;;;;;;19.48;12.48;;;15.60;89.80;;;;;;2072648;28;20459;-84
2021/07/03 03:04:03;;;;;;;19.30;12.23;;;15.60;89.80;;;;;;2064755;28;20026;-83
2021/07/03 03:05:11;;;;;;;18.25;12.48;;;15.60;89.80;;;;;;2064269;28;20026;-83
2021/07/03 03:06:13;;;;;;;18.05;12.32;;;15.60;89.80;;;;;;2073011;28;20030;-83
2021/07/03 03:07:13;;;;;;;18.45;12.07;;;15.60;89.80;;;;;;2072591;28;20036;-84
2021/07/03 03:08:14;;;;;;;17.95;12.45;;;15.60;89.90;;;;;;2078930;28;20480;-84
2021/07/03 03:09:16;;;;;;;18.88;12.93;;;15.60;89.90;;;;;;2079011;28;20036;-84
2021/07/03 03:10:18;;;;;;;19.77;13.25;;;15.60;90.00;;;;;;2072358;28;20034;-84
2021/07/03 03:11:19;;;;;;;19.75;12.43;;;15.60;90.20;;;;;;2056289;28;20051;-84
2021/07/03 03:12:19;;;;;;;19.08;12.25;;;15.60;90.00;;;;;;2064683;28;20100;-84
2021/07/03 03:13:20;;;;;;;19.00;12.57;;;15.60;90.00;;;;;;2058466;28;20119;-83
2021/07/03 03:14:24;;;;;;;17.83;12.27;;;15.60;90.00;;;;;;2050749;28;20027;-83
2021/07/03 03:15:24;;;;;;;20.60;12.95;;;15.60;90.30;;;;;;2066973;28;20102;-84
2021/07/03 03:16:26;;;;;;;18.30;12.50;;;15.60;90.00;;;;;;2067790;28;20034;-83
2021/07/03 03:17:27;;;;;;;19.63;13.30;;;15.60;90.00;;;;;;2065946;28;20028;-84
2021/07/03 03:18:28;;;;;;;20.73;13.75;;;15.60;90.00;;;;;;2074410;28;20057;-84
2021/07/03 03:19:28;;;;;;;18.88;13.13;;;15.60;90.00;;;;;;2066258;28;20022;-84
2021/07/03 03:20:29;;;;;;;19.65;13.38;;;15.60;90.00;;;;;;2066702;28;20084;-83
2021/07/03 03:21:30;;;;;;;21.75;13.48;;;15.60;90.00;;;;;;2071927;28;20026;-83
2021/07/03 03:22:30;;;;;;;19.25;13.20;;;15.60;90.20;;;;;;2066650;28;20039;-84
2021/07/03 03:23:31;;;;;;;21.17;13.48;;;15.70;90.00;;;;;;2058302;28;20491;-83
2021/07/03 03:24:32;;;;;;;19.55;13.02;;;15.70;90.20;;;;;;2057881;28;20409;-83
2021/07/03 03:25:32;;;;;;;21.75;13.93;;;15.60;90.20;;;;;;2074439;28;20018;-83
2021/07/03 03:26:33;;;;;;;21.35;14.55;;;15.70;90.00;;;;;;2074459;28;20064;-84
2021/07/03 03:27:34;;;;;;;21.40;13.88;;;15.70;90.00;;;;;;2074036;28;20040;-83
2021/07/03 03:28:35;;;;;;;20.27;13.57;;;15.70;90.00;;;;;;2066018;28;20507;-83
2021/07/03 03:29:35;;;;;;;19.85;14.15;;;15.70;90.00;;;;;;2064956;28;20501;-83
2021/07/03 03:30:36;;;;;;;21.40;13.40;;;15.70;90.00;;;;;;2059827;28;20031;-84
2021/07/03 03:31:37;;;;;;;21.23;13.25;;;15.70;90.00;;;;;;2059119;28;20031;-84
2021/07/03 03:32:38;;;;;;;22.60;13.88;;;15.70;90.20;;;;;;2058880;28;20078;-83
2021/07/03 03:33:38;;;;;;;20.15;13.38;;;15.70;90.00;;;;;;2076097;28;20030;-83
2021/07/03 03:34:39;;;;;;;20.00;13.48;;;15.70;90.00;;;;;;2067627;28;20034;-83
2021/07/03 03:35:40;;;;;;;16.85;12.20;;;15.80;90.00;;;;;;2059251;28;20031;-83
2021/07/03 03:36:40;;;;;;;20.77;13.05;;;15.70;90.00;;;;;;2059098;28;20129;-83
2021/07/03 03:37:41;;;;;;;20.40;13.07;;;15.80;90.00;;;;;;2067433;28;20150;-83
2021/07/03 03:38:42;;;;;;;21.40;13.38;;;15.80;90.00;;;;;;2075666;28;20069;-83
2021/07/03 03:39:43;;;;;;;19.40;13.20;;;15.80;90.00;;;;;;2068311;28;20041;-83
2021/07/03 03:40:43;;;;;;;20.67;13.25;;;15.80;90.00;;;;;;2074050;28;20094;-84
2021/07/03 03:41:44;;;;;;;21.38;13.38;;;15.80;90.00;;;;;;2065879;28;20066;-84
2021/07/03 03:42:45;;;;;;;19.75;13.32;;;15.80;89.90;;;;;;2064877;28;20081;-83
2021/07/03 03:43:45;;;;;;;21.05;13.73;;;15.80;90.00;;;;;;2056709;28;20398;-83
2021/07/03 03:44:46;;;;;;;20.27;12.85;;;15.80;90.00;;;;;;2058088;28;20444;-83
2021/07/03 03:45:47;;;;;;;20.65;13.18;;;15.90;90.00;;;;;;2082836;28;20037;-83
2021/07/03 03:46:54;;;;;;;20.55;13.85;;;15.90;89.90;;;;;;2075125;28;20049;-82
2021/07/03 03:47:54;;;;;;;19.77;12.90;;;15.90;89.90;;;;;;2075831;28;20038;-82
2021/07/03 03:48:55;;;;;;;19.88;13.02;;;15.90;89.90;;;;;;2073138;28;20053;-83
2021/07/03 03:49:56;;;;;;;20.15;13.25;;;15.90;90.00;;;;;;2074568;28;20122;-83
2021/07/03 03:50:57;;;;;;;20.45;13.15;;;15.90;89.90;;;;;;2066184;28;20046;-83
2021/07/03 03:51:57;;;;;;;19.75;13.45;;;15.90;90.20;;;;;;2074096;28;20389;-83
2021/07/03 03:52:58;;;;;;;21.40;13.77;;;15.90;89.80;;;;;;2078496;28;20072;-83
2021/07/03 03:53:59;;;;;;;20.35;13.82;;;15.90;89.80;;;;;;2080650;28;20025;-84
2021/07/03 03:55:00;;;;;;;21.35;13.45;;;16.00;89.80;;;;;;2074792;28;20022;-82
2021/07/03 03:56:01;;;;;;;20.25;13.75;;;15.90;89.80;;;;;;2073260;28;20030;-83
2021/07/03 03:57:22;;;;;;;20.83;13.77;;;15.90;89.80;;;;;;2078970;28;20516;-83
2021/07/03 03:58:22;;;;;;;20.95;14.02;;;16.00;89.80;;;;;;2074025;28;20038;-83
2021/07/03 03:59:23;;;;;;;20.60;13.52;;;16.00;89.70;;;;;;2072653;28;20029;-83
2021/07/03 04:00:24;;;;;;;20.42;12.88;;;16.00;89.70;;;;;;2072038;28;20041;-84
2021/07/03 04:01:24;;;;;;;20.95;13.80;;;16.00;89.70;;;;;;2058383;28;20023;-83
2021/07/03 04:02:26;;;;;;;21.35;14.10;;;16.00;89.70;;;;;;2061820;28;20414;-83
2021/07/03 04:03:27;;;;;;;21.52;14.25;;;16.00;89.70;;;;;;2061521;28;20050;-83
2021/07/03 04:04:27;;;;;;;22.52;14.43;;;16.00;89.70;;;;;;2065033;28;20440;-83
2021/07/03 04:05:28;;;;;;;22.70;14.48;;;16.00;89.70;;;;;;2079430;28;20491;-83
2021/07/03 04:06:29;;;;;;;20.10;13.77;;;16.00;89.80;;;;;;2081002;28;20053;-83
2021/07/03 04:07:30;;;;;;;21.50;14.07;;;16.00;89.80;;;;;;2072302;28;20088;-83
2021/07/03 04:08:30;;;;;;;22.10;13.98;;;16.00;89.80;;;;;;2056258;28;20454;-83
2021/07/03 04:09:31;;;;;;;24.33;14.82;;;16.10;89.90;;;;;;2045681;28;20587;-83
2021/07/03 04:10:32;;;;;;;22.48;14.38;;;16.00;89.80;;;;;;2063078;28;20595;-83
2021/07/03 04:11:33;;;;;;;21.67;14.55;;;16.10;89.90;;;;;;2064991;28;20038;-83
2021/07/03 04:12:34;;;;;;;22.02;14.18;;;16.10;89.90;;;;;;2064476;28;20038;-83
2021/07/03 04:13:34;;;;;;;22.33;14.75;;;16.10;90.20;;;;;;2072283;28;20034;-83
2021/07/03 04:14:36;;;;;;;24.67;15.07;;;16.10;89.90;;;;;;2072685;28;20909;-84
2021/07/03 04:15:36;;;;;;;23.35;15.07;;;16.00;89.80;;;;;;2076445;28;20025;-81
2021/07/03 04:16:37;;;;;;;25.58;14.90;;;16.10;89.90;;;;;;2074191;28;20026;-82
2021/07/03 04:17:38;;;;;;;22.77;15.52;;;16.10;89.90;;;;;;2076919;28;20401;-83
2021/07/03 04:18:39;;;;;;;23.77;15.25;;;16.10;89.80;;;;;;2071887;28;20060;-83
2021/07/03 04:19:40;;;;;;;21.63;14.95;;;16.20;89.90;;;;;;2061643;28;20030;-83
2021/07/03 04:20:41;;;;;;;23.27;14.88;;;16.20;89.90;;;;;;2065510;28;20031;-84
2021/07/03 04:21:41;;;;;;;23.92;15.50;;;16.20;89.80;;;;;;2064657;28;20109;-83
2021/07/03 04:22:42;;;;;;;24.90;14.98;;;16.20;89.70;;;;;;2048445;28;20430;-83
2021/07/03 04:23:43;;;;;;;23.85;14.98;;;16.30;89.70;;;;;;2068534;28;20490;-83
2021/07/03 04:24:44;;;;;;;22.80;15.07;;;16.20;89.60;;;;;;2076840;28;20057;-83
2021/07/03 04:25:45;;;;;;;24.55;16.48;;;16.30;89.60;;;;;;2072842;28;20018;-83
2021/07/03 04:26:45;;;;;;;22.98;15.25;;;16.30;89.60;;;;;;2080699;28;20124;-83
2021/07/03 04:27:47;;;;;;;23.75;15.77;;;16.30;89.50;;;;;;2072406;28;20125;-83
2021/07/03 04:28:48;;;;;;;22.95;15.40;;;16.30;90.00;;;;;;2059393;28;20070;-83
2021/07/03 04:29:48;;;;;;;20.42;14.48;;;16.30;89.50;;;;;;2052355;28;20027;-83
2021/07/03 04:30:49;;;;;;;22.67;15.40;;;16.30;89.40;;;;;;2056154;28;20039;-83
2021/07/03 04:31:50;;;;;;;24.60;15.18;;;16.30;89.40;;;;;;2053040;28;20026;-83
2021/07/03 04:32:50;;;;;;;23.52;15.45;;;16.40;89.50;;;;;;2058854;28;20421;-84
2021/07/03 04:33:51;;;;;;;21.50;14.70;;;16.40;89.50;;;;;;2080716;28;20454;-84
2021/07/03 04:34:52;;;;;;;22.25;14.70;;;16.40;89.50;;;;;;2055176;28;20433;-84
2021/07/03 04:35:52;;;;;;;21.20;14.85;;;16.30;89.40;;;;;;2048370;28;20039;-84
2021/07/03 04:36:54;;;;;;;23.63;15.23;;;16.30;89.50;;;;;;2055313;28;20031;-84
2021/07/03 04:37:55;;;;;;;23.77;15.52;;;16.30;89.50;;;;;;2074773;28;20068;-83
2021/07/03 04:38:55;;;;;;;22.83;16.00;;;16.30;89.60;;;;;;2063325;28;20511;-84
2021/07/03 04:39:56;;;;;;;23.38;15.77;;;16.30;89.60;;;;;;2061633;28;20477;-83
2021/07/03 04:40:57;;;;;;;22.65;15.02;;;16.30;89.70;;;;;;2071566;28;20028;-83
2021/07/03 04:41:58;;;;;;;23.10;15.35;;;16.30;89.70;;;;;;2051899;28;20031;-83
2021/07/03 04:42:58;;;;;;;22.67;14.93;;;16.30;90.10;;;;;;2059232;28;20031;-84
2021/07/03 04:43:59;;;;;;;23.42;15.48;;;16.20;90.10;;;;;;2060242;28;20038;-83
2021/07/03 04:45:00;;;;;;;22.20;15.00;;;16.20;89.70;;;;;;2063958;28;20030;-83
2021/07/03 04:46:00;;;;;;;22.40;15.10;;;16.20;89.70;;;;;;2068145;28;20033;-83
2021/07/03 04:47:01;;;;;;;23.73;15.23;;;16.30;89.80;;;;;;2065559;28;20030;-83
2021/07/03 04:48:02;;;;;;;22.10;14.77;;;16.30;89.80;;;;;;2060820;28;20022;-83
2021/07/03 04:49:03;;;;;;;21.58;15.20;;;16.30;89.90;;;;;;2065251;28;20018;-83
2021/07/03 04:50:06;;;;;;;21.92;15.82;;;16.30;89.90;;;;;;2073558;28;20030;-83
2021/07/03 04:51:07;;;;;;;22.13;15.00;;;16.30;89.90;;;;;;2072871;28;20033;-83
2021/07/03 04:52:08;;;;;;;21.75;14.82;;;16.30;89.80;;;;;;2060255;28;20034;-83
2021/07/03 04:53:09;;;;;;;23.10;15.35;;;16.20;89.80;;;;;;2065480;28;20504;-83
2021/07/03 04:54:09;;;;;;;22.58;15.32;;;16.30;89.80;;;;;;2065253;28;20105;-84
2021/07/03 04:55:11;;;;;;;21.65;14.40;;;16.30;89.80;;;;;;2057452;28;20107;-84
2021/07/03 04:56:11;;;;;;;22.13;14.77;;;16.30;89.80;;;;;;2063402;28;20069;-84
2021/07/03 04:57:12;;;;;;;22.52;14.90;;;16.30;89.80;;;;;;2065288;28;20022;-84
2021/07/03 04:58:13;;;;;;;22.17;15.60;;;16.40;89.80;;;;;;2067693;28;20044;-86
2021/07/03 04:59:13;;;;;;;21.02;14.93;;;16.40;89.80;;;;;;2059442;28;20027;-83
2021/07/03 05:00:14;;;;;;;23.40;15.80;;;16.40;89.80;;;;;;2072854;28;20092;-83
2021/07/03 05:01:15;;;;;;;22.55;15.00;;;16.40;89.70;;;;;;2073779;28;20038;-84
2021/07/03 05:02:16;;;;;;;21.70;14.02;;;16.40;89.70;;;;;;2072933;28;20049;-84
2021/07/03 05:03:16;;;;;;;22.67;14.68;;;16.50;89.60;;;;;;2057471;28;20034;-83
2021/07/03 05:04:17;;;;;;;21.98;15.23;;;16.50;89.50;;;;;;2065558;28;20022;-84
2021/07/03 05:05:18;;;;;;;21.52;14.82;;;16.50;89.50;;;;;;2057112;28;20498;-83
2021/07/03 05:06:18;;;;;;;22.33;15.07;;;16.50;89.40;;;;;;2055792;28;20509;-83
2021/07/03 05:07:19;;;;;;;24.02;15.23;;;16.50;89.40;;;;;;2078917;28;20032;-84
2021/07/03 05:08:20;;;;;;;21.48;14.82;;;16.50;89.40;;;;;;2073270;28;20133;-84
2021/07/03 05:09:20;;;;;;;25.08;16.05;;;16.50;89.40;;;;;;2065526;28;20019;-83
2021/07/03 05:10:21;;;;;;;22.60;15.00;;;16.50;89.40;;;;;;2073326;28;20037;-83
2021/07/03 05:11:22;;;;;;;23.33;15.55;;;16.50;89.40;;;;;;2073122;28;20516;-83
2021/07/03 05:12:22;;;;;;;21.95;14.68;;;16.50;89.40;;;;;;2081604;28;20033;-83